Time;durP1;ratioP1;P1;durP2;ratioP2;P2;SDS_P1;SDS_P2;PMS_P1;PMS_P2;Temp;Humidity;BMP_temperature;BMP_pressure;BME280_temperature;BME280_humidity;BME280_pressure;Samples;Min_cycle;Max_cycle;Signal;HPM_P1;HPM_P2
2023/09/18 00:00:23;;;;;;;0.90;0.90;;;;;;;19.41;nan;61405.53;5077363;28;20177;-66
2023/09/18 00:02:48;;;;;;;1.00;0.90;;;;;;;19.50;nan;61601.72;5113209;28;20569;-66
2023/09/18 00:05:15;;;;;;;0.90;0.90;;;;;;;19.55;nan;61355.44;5105623;28;20652;-66
2023/09/18 00:07:42;;;;;;;1.00;1.00;;;;;;;19.59;nan;61393.66;5092733;28;20636;-66
2023/09/18 00:10:08;;;;;;;0.82;0.82;;;;;;;19.54;nan;61413.91;5092474;28;20217;-65
2023/09/18 00:12:34;;;;;;;0.60;0.60;;;;;;;19.70;nan;61426.78;5091693;28;20272;-65
2023/09/18 00:14:59;;;;;;;0.85;0.85;;;;;;;19.52;nan;61388.31;5092207;28;20276;-65
2023/09/18 00:17:24;;;;;;;1.30;1.20;;;;;;;19.40;nan;61508.03;5104479;28;20169;-66
2023/09/18 00:19:51;;;;;;;1.20;1.10;;;;;;;19.49;nan;61356.44;5095515;28;20189;-65
2023/09/18 00:22:17;;;;;;;1.00;1.00;;;;;;;19.56;nan;61406.34;5110156;28;20180;-66
2023/09/18 00:24:42;;;;;;;1.33;1.23;;;;;;;19.37;nan;61485.94;5092362;28;20601;-65
2023/09/18 00:27:07;;;;;;;2.05;1.15;;;;;;;19.33;nan;61435.31;5092296;28;20177;-65
2023/09/18 00:29:33;;;;;;;1.00;1.00;;;;;;;19.34;nan;61386.66;5106250;28;20215;-64
2023/09/18 00:31:58;;;;;;;0.98;0.98;;;;;;;19.54;nan;61427.44;5099249;28;20226;-64
2023/09/18 00:34:24;;;;;;;1.08;0.98;;;;;;;19.52;nan;61453.09;5095209;28;20176;-65
2023/09/18 00:36:49;;;;;;;0.70;0.70;;;;;;;19.46;nan;61415.81;5094862;28;20299;-65
2023/09/18 00:39:15;;;;;;;1.88;1.33;;;;;;;19.26;nan;61258.50;5109939;28;20279;-65
2023/09/18 00:41:41;;;;;;;0.90;0.90;;;;;;;19.33;nan;61453.47;5091789;28;20177;-65
2023/09/18 00:44:06;;;;;;;0.80;0.80;;;;;;;19.47;nan;61494.13;5097993;28;20630;-65
2023/09/18 00:46:33;;;;;;;1.42;1.05;;;;;;;19.40;nan;61409.56;5112427;28;20259;-65
2023/09/18 00:48:58;;;;;;;0.90;0.90;;;;;;;17.60;nan;61286.13;5112523;28;20172;-65
2023/09/18 00:51:24;;;;;;;1.17;1.00;;;;;;;19.51;nan;61525.13;5107253;28;20560;-66
2023/09/18 00:53:50;;;;;;;0.82;0.80;;;;;;;19.44;nan;61635.81;5091124;28;20181;-67
2023/09/18 00:56:17;;;;;;;0.85;0.85;;;;;;;19.50;nan;61370.53;5090328;28;20553;-67
2023/09/18 00:58:43;;;;;;;1.00;0.90;;;;;;;19.37;nan;61379.72;5091137;28;20185;-67
2023/09/18 01:01:10;;;;;;;0.80;0.80;;;;;;;19.59;nan;61394.22;5094480;28;20172;-66
2023/09/18 01:03:36;;;;;;;2.65;1.20;;;;;;;19.51;nan;61359.28;5097934;28;20226;-66
2023/09/18 01:06:01;;;;;;;0.90;0.70;;;;;;;19.62;nan;61423.50;5091830;28;20173;-66
2023/09/18 01:08:26;;;;;;;1.10;0.90;;;;;;;19.27;nan;61490.72;5110948;28;20598;-66
2023/09/18 01:11:05;;;;;;;1.23;1.00;;;;;;;19.40;nan;61605.91;5111822;28;20626;-66
2023/09/18 01:13:39;;;;;;;1.10;1.08;;;;;;;19.44;nan;61517.19;5112059;28;20180;-66
2023/09/18 01:16:14;;;;;;;1.15;1.00;;;;;;;19.33;nan;61531.19;5112036;28;20249;-66
2023/09/18 01:18:48;;;;;;;0.80;0.80;;;;;;;;;;5112133;28;20178;-66
2023/09/18 01:21:13;;;;;;;1.90;0.88;;;;;;;19.28;nan;61383.03;5111865;28;20639;-66
2023/09/18 01:23:38;;;;;;;0.80;0.80;;;;;;;19.32;nan;61348.16;5111979;28;20173;-66
2023/09/18 01:26:04;;;;;;;0.80;0.80;;;;;;;19.27;nan;61529.59;5112058;28;20246;-66
2023/09/18 01:28:29;;;;;;;1.55;1.25;;;;;;;19.34;nan;61446.25;5111867;28;20524;-66
2023/09/18 01:30:54;;;;;;;1.23;0.90;;;;;;;19.50;nan;61430.13;5111844;28;20173;-66
2023/09/18 01:33:21;;;;;;;0.75;0.75;;;;;;;19.54;nan;61468.91;5111784;28;20165;-66
2023/09/18 01:35:46;;;;;;;1.20;1.10;;;;;;;19.45;nan;61479.44;5111534;28;20194;-66
2023/09/18 01:38:12;;;;;;;1.00;0.90;;;;;;;19.33;nan;61390.72;5111788;28;20169;-66
2023/09/18 01:40:39;;;;;;;1.08;0.98;;;;;;;19.46;nan;61407.47;5112018;28;20165;-66
2023/09/18 01:43:04;;;;;;;1.00;0.90;;;;;;;19.23;nan;61377.41;5111990;28;20162;-67
2023/09/18 01:45:30;;;;;;;1.33;0.90;;;;;;;19.23;nan;61395.53;5111659;28;20253;-66
2023/09/18 01:47:55;;;;;;;1.33;0.85;;;;;;;19.49;nan;61437.34;5112206;28;20164;-66
2023/09/18 01:50:21;;;;;;;0.80;0.80;;;;;;;19.47;nan;61455.78;5115793;28;20684;-66
2023/09/18 01:52:46;;;;;;;0.70;0.70;;;;;;;19.48;nan;61459.53;5115606;28;20636;-66
2023/09/18 01:55:12;;;;;;;0.80;0.80;;;;;;;19.40;nan;61466.56;5115572;28;20648;-67
2023/09/18 01:57:37;;;;;;;1.00;1.00;;;;;;;19.44;nan;61439.44;5115333;28;20175;-66
2023/09/18 02:00:07;;;;;;;0.80;0.80;;;;;;;19.37;nan;61426.88;5115779;28;20218;-66
2023/09/18 02:02:33;;;;;;;1.08;0.98;;;;;;;19.11;nan;61537.38;5115647;28;20631;-66
2023/09/18 02:04:58;;;;;;;1.05;1.02;;;;;;;19.13;nan;61373.31;5115238;28;20176;-66
2023/09/18 02:07:23;;;;;;;0.80;0.80;;;;;;;18.71;nan;61435.16;5115380;28;20213;-67
2023/09/18 02:09:49;;;;;;;2.85;1.50;;;;;;;19.11;nan;61441.53;5115196;28;20531;-66
2023/09/18 02:12:17;;;;;;;0.90;0.90;;;;;;;19.08;nan;61316.44;5115361;28;20160;-66
2023/09/18 02:14:44;;;;;;;1.10;1.10;;;;;;;19.29;nan;61436.00;5115345;28;20165;-67
2023/09/18 02:17:10;;;;;;;1.00;0.90;;;;;;;19.37;nan;61408.75;5114939;28;20204;-66
2023/09/18 02:19:35;;;;;;;0.80;0.80;;;;;;;19.44;nan;61467.38;5115243;28;20234;-67
2023/09/18 02:22:00;;;;;;;1.02;1.00;;;;;;;19.42;nan;61564.16;5115168;28;20168;-66
2023/09/18 02:24:26;;;;;;;1.60;1.00;;;;;;;19.50;nan;61412.56;5115135;28;20216;-66
2023/09/18 02:26:51;;;;;;;0.73;0.73;;;;;;;19.26;nan;61530.47;5115006;28;20708;-66
2023/09/18 02:29:16;;;;;;;1.10;1.00;;;;;;;19.28;nan;61525.53;5115044;28;20196;-66
2023/09/18 02:31:42;;;;;;;1.17;1.10;;;;;;;19.20;nan;61436.19;5114856;28;20639;-66
2023/09/18 02:34:08;;;;;;;0.75;0.75;;;;;;;19.17;nan;61341.56;5114770;28;20208;-66
2023/09/18 02:36:34;;;;;;;1.00;1.00;;;;;;;19.15;nan;61412.41;5114640;28;20189;-66
2023/09/18 02:38:59;;;;;;;1.33;1.20;;;;;;;19.16;nan;61509.34;5115091;28;20214;-66
2023/09/18 02:41:25;;;;;;;1.10;1.00;;;;;;;19.28;nan;61465.94;5114443;28;20255;-67
2023/09/18 02:43:50;;;;;;;1.40;1.30;;;;;;;19.10;nan;61505.16;5114596;28;20176;-66
2023/09/18 02:46:16;;;;;;;1.02;0.93;;;;;;;19.35;nan;61449.97;5096612;28;20165;-66
2023/09/18 02:48:41;;;;;;;0.82;0.82;;;;;;;19.34;nan;61439.06;5114640;28;20172;-67
2023/09/18 02:51:08;;;;;;;1.38;1.08;;;;;;;19.23;nan;61411.09;5114437;28;20644;-66
2023/09/18 02:53:33;;;;;;;3.30;1.00;;;;;;;19.39;nan;61553.53;5114429;28;20172;-67
2023/09/18 02:55:59;;;;;;;1.13;1.05;;;;;;;19.22;nan;61399.59;5114518;28;20208;-66
2023/09/18 02:58:25;;;;;;;0.80;0.80;;;;;;;19.31;nan;61422.72;5114455;28;20176;-66
2023/09/18 03:00:52;;;;;;;1.88;0.88;;;;;;;19.46;nan;61449.50;5114165;28;20187;-66
2023/09/18 03:03:17;;;;;;;1.95;1.30;;;;;;;19.52;nan;61552.16;4422753;28;20902;-67
2023/09/18 03:05:44;;;;;;;2.25;1.45;;;;;;;19.58;nan;61486.38;4881789;28;20634;-66
2023/09/18 03:08:10;;;;;;;2.05;1.10;;;;;;;19.62;nan;61597.16;5114283;28;20161;-67
2023/09/18 03:10:41;;;;;;;1.42;0.95;;;;;;;19.64;nan;61464.09;5105265;28;20231;-66
2023/09/18 03:13:09;;;;;;;1.40;1.27;;;;;;;19.64;nan;61534.66;5089547;28;20538;-66
2023/09/18 03:15:35;;;;;;;1.35;1.05;;;;;;;19.65;nan;61509.84;5111622;28;20200;-67
2023/09/18 03:18:01;;;;;;;1.20;1.10;;;;;;;19.69;nan;61472.34;5092837;28;20214;-66
2023/09/18 03:20:31;;;;;;;1.17;1.05;;;;;;;19.58;nan;61595.22;5091705;28;20188;-66
2023/09/18 03:22:58;;;;;;;1.20;1.10;;;;;;;19.76;nan;61529.50;5092251;28;20558;-66
2023/09/18 03:25:25;;;;;;;1.00;0.90;;;;;;;19.53;nan;61413.34;5093887;28;20177;-66
2023/09/18 03:27:55;;;;;;;1.52;1.00;;;;;;;19.68;nan;61489.91;5100540;28;20177;-66
2023/09/18 03:30:23;;;;;;;0.80;0.80;;;;;;;19.53;nan;61568.28;5092241;28;20239;-67
2023/09/18 03:32:48;;;;;;;0.98;0.85;;;;;;;19.51;nan;61418.31;5092508;28;20185;-66
2023/09/18 03:35:18;;;;;;;0.80;0.80;;;;;;;18.36;nan;61487.22;5108482;28;20662;-66
2023/09/18 03:37:44;;;;;;;1.05;0.95;;;;;;;19.74;nan;61553.19;5090731;28;20199;-67
2023/09/18 03:40:10;;;;;;;1.20;1.10;;;;;;;19.51;nan;61454.59;5110906;27;20181;-66
2023/09/18 03:42:36;;;;;;;0.85;0.85;;;;;;;19.66;nan;61754.06;5091792;28;20188;-65
2023/09/18 03:45:02;;;;;;;0.95;0.80;;;;;;;19.67;nan;61483.03;5092336;28;20181;-65
2023/09/18 03:47:27;;;;;;;0.77;0.77;;;;;;;19.34;nan;61588.75;5092759;28;20185;-65
2023/09/18 03:49:53;;;;;;;1.10;1.00;;;;;;;19.70;nan;61507.72;5104493;28;20225;-65
2023/09/18 03:52:18;;;;;;;2.33;1.20;;;;;;;19.53;nan;61610.31;5097912;28;20174;-66
2023/09/18 03:54:43;;;;;;;1.20;1.05;;;;;;;19.68;nan;61504.91;5099384;28;20169;-65
2023/09/18 03:57:09;;;;;;;1.55;1.00;;;;;;;19.66;nan;61577.81;5099497;28;20246;-65
2023/09/18 03:59:34;;;;;;;2.85;1.17;;;;;;;19.69;nan;61550.09;5102723;28;20185;-65
2023/09/18 04:02:00;;;;;;;2.03;1.40;;;;;;;19.62;nan;61529.78;5091921;28;20186;-65
2023/09/18 04:04:25;;;;;;;1.38;1.08;;;;;;;19.50;nan;61487.13;5095186;28;20207;-66
2023/09/18 04:06:51;;;;;;;0.77;0.77;;;;;;;19.69;nan;61532.53;5089588;28;20169;-66
2023/09/18 04:09:17;;;;;;;1.73;1.05;;;;;;;;;;5091154;28;20268;-66
2023/09/18 04:11:43;;;;;;;0.95;0.90;;;;;;;19.65;nan;61621.31;5103004;28;20242;-66
2023/09/18 04:14:08;;;;;;;1.17;0.82;;;;;;;19.61;nan;61504.75;5094146;28;20189;-66
2023/09/18 04:16:35;;;;;;;0.95;0.90;;;;;;;19.49;nan;61504.72;5078063;28;20213;-67
2023/09/18 04:19:03;;;;;;;1.13;1.02;;;;;;;19.51;nan;61483.66;5090721;28;20180;-68
2023/09/18 04:21:29;;;;;;;2.00;1.52;;;;;;;19.66;nan;61536.91;5103774;28;20180;-66
2023/09/18 04:23:57;;;;;;;1.58;1.15;;;;;;;19.78;nan;61539.56;5094223;28;20180;-66
2023/09/18 04:26:30;;;;;;;1.08;0.98;;;;;;;19.72;nan;61491.28;5096581;28;20256;-66
2023/09/18 04:29:01;;;;;;;1.52;1.30;;;;;;;19.62;nan;61500.69;5090696;28;20181;-66
2023/09/18 04:31:27;;;;;;;1.33;1.02;;;;;;;19.71;nan;61475.16;5107042;28;20188;-66
2023/09/18 04:33:53;;;;;;;1.08;1.00;;;;;;;19.38;nan;61593.84;5091093;28;20652;-66
2023/09/18 04:36:19;;;;;;;1.23;1.10;;;;;;;19.54;nan;61439.81;5104472;28;20201;-66
2023/09/18 04:38:44;;;;;;;1.50;1.40;;;;;;;19.73;nan;61669.28;5096939;28;20178;-66
2023/09/18 04:41:11;;;;;;;1.17;1.08;;;;;;;19.79;nan;61603.47;5102883;28;20188;-66
2023/09/18 04:43:38;;;;;;;1.65;1.10;;;;;;;19.78;nan;61487.72;5095729;28;20256;-66
2023/09/18 04:46:04;;;;;;;0.90;0.90;;;;;;;19.61;nan;61624.53;5104562;28;20177;-67
2023/09/18 04:48:31;;;;;;;1.65;1.10;;;;;;;19.70;nan;61504.56;5093755;28;20558;-67
2023/09/18 04:50:57;;;;;;;1.27;1.00;;;;;;;19.92;nan;61570.97;5105840;28;20268;-67
2023/09/18 04:53:22;;;;;;;1.05;0.98;;;;;;;19.96;nan;61621.59;5093641;28;20277;-67
2023/09/18 04:55:50;;;;;;;1.17;0.95;;;;;;;20.01;nan;61580.59;5106492;28;20255;-67
2023/09/18 04:58:17;;;;;;;1.38;1.13;;;;;;;20.06;nan;61763.19;5092399;28;20179;-66
2023/09/18 05:00:43;;;;;;;1.67;1.30;;;;;;;20.18;nan;61708.78;5108238;28;20188;-67
2023/09/18 05:03:10;;;;;;;1.20;1.10;;;;;;;20.21;nan;61629.75;5091238;28;20208;-67
2023/09/18 05:05:35;;;;;;;0.98;0.90;;;;;;;20.12;nan;61712.94;5108668;28;20264;-67
2023/09/18 05:08:07;;;;;;;1.30;1.20;;;;;;;20.33;nan;61616.28;5090892;28;20219;-67
2023/09/18 05:10:33;;;;;;;1.35;1.25;;;;;;;20.24;nan;61617.59;5076027;28;20367;-67
2023/09/18 05:12:58;;;;;;;2.20;1.30;;;;;;;20.53;nan;61753.16;5093485;28;20204;-66
2023/09/18 05:15:29;;;;;;;2.25;1.05;;;;;;;20.55;nan;61862.44;5108560;28;20224;-67
2023/09/18 05:17:57;;;;;;;2.10;1.63;;;;;;;20.68;nan;61651.31;5090554;28;20181;-67
2023/09/18 05:20:27;;;;;;;1.58;1.17;;;;;;;20.73;nan;61721.31;5109359;28;20181;-66
2023/09/18 05:22:54;;;;;;;1.25;1.15;;;;;;;20.69;nan;61789.50;5091936;28;20252;-67
2023/09/18 05:25:25;;;;;;;1.48;1.00;;;;;;;20.87;nan;61734.63;5102484;28;20254;-66
2023/09/18 05:27:55;;;;;;;2.15;1.42;;;;;;;20.83;nan;61823.00;5115918;28;20153;-67
2023/09/18 05:30:25;;;;;;;1.38;1.27;;;;;;;20.92;nan;61833.81;5115873;28;20215;-66
2023/09/18 05:32:50;;;;;;;1.17;1.05;;;;;;;21.17;nan;61809.13;5115961;28;20624;-67
2023/09/18 05:35:17;;;;;;;1.65;1.30;;;;;;;21.33;nan;61791.47;5115762;28;20255;-67
2023/09/18 05:37:43;;;;;;;1.15;1.00;;;;;;;21.40;nan;61913.81;5115423;28;20551;-67
2023/09/18 05:40:11;;;;;;;1.77;1.13;;;;;;;21.47;nan;61853.59;5115770;28;20169;-67
2023/09/18 05:42:37;;;;;;;1.20;1.10;;;;;;;21.44;nan;61777.41;5115312;28;20552;-67
2023/09/18 05:45:04;;;;;;;2.58;1.48;;;;;;;21.76;nan;61854.75;5115666;28;20168;-67
2023/09/18 05:47:32;;;;;;;1.20;1.10;;;;;;;21.76;nan;61821.53;5115696;28;20202;-67
2023/09/18 05:49:57;;;;;;;1.63;1.30;;;;;;;22.09;nan;61894.31;5115024;28;20169;-67
2023/09/18 05:52:23;;;;;;;1.08;0.98;;;;;;;22.11;nan;61907.56;5115546;28;20176;-66
2023/09/18 05:54:49;;;;;;;0.82;0.77;;;;;;;22.48;nan;61988.09;5115560;28;20632;-66
2023/09/18 05:57:14;;;;;;;1.40;1.00;;;;;;;22.69;nan;62056.31;5115326;28;20274;-67
2023/09/18 05:59:43;;;;;;;1.40;1.15;;;;;;;22.81;nan;62002.25;5115443;28;20176;-66
2023/09/18 06:02:09;;;;;;;1.20;1.10;;;;;;;23.34;nan;62074.47;5115023;28;20559;-66
2023/09/18 06:04:36;;;;;;;1.05;0.95;;;;;;;23.84;nan;62221.63;5114493;28;20169;-66
2023/09/18 06:07:03;;;;;;;1.08;1.00;;;;;;;24.06;nan;62200.31;5104381;28;20189;-67
2023/09/18 06:09:28;;;;;;;1.45;1.35;;;;;;;24.18;nan;62182.09;5106899;28;20176;-66
2023/09/18 06:11:54;;;;;;;0.90;0.90;;;;;;;24.48;nan;62218.91;5094445;28;20274;-66
2023/09/18 06:14:19;;;;;;;1.02;0.93;;;;;;;24.87;nan;62351.16;5100409;28;20245;-67
2023/09/18 06:16:45;;;;;;;1.98;1.15;;;;;;;25.18;nan;62268.88;5104547;28;20218;-67
2023/09/18 06:19:10;;;;;;;2.20;1.50;;;;;;;25.35;nan;62329.53;5106793;28;20177;-66
2023/09/18 06:21:35;;;;;;;1.75;1.23;;;;;;;25.39;nan;62368.13;5098926;28;20264;-66
2023/09/18 06:24:01;;;;;;;1.40;1.15;;;;;;;25.71;nan;62419.84;5105068;28;20642;-66
2023/09/18 06:26:27;;;;;;;1.02;0.90;;;;;;;25.38;nan;62319.91;5100512;28;20225;-67
2023/09/18 06:28:54;;;;;;;1.55;1.40;;;;;;;25.15;nan;62234.06;5103783;28;20655;-67
2023/09/18 06:31:20;;;;;;;1.20;1.10;;;;;;;25.55;nan;62503.63;5101671;28;20204;-67
2023/09/18 06:33:45;;;;;;;1.45;1.00;;;;;;;25.76;nan;62494.19;5102339;28;20649;-67
2023/09/18 06:36:11;;;;;;;1.10;1.00;;;;;;;25.50;nan;62428.38;5102416;28;20197;-66
2023/09/18 06:38:36;;;;;;;1.58;1.20;;;;;;;25.32;nan;62307.81;5101432;28;20227;-65
2023/09/18 06:41:02;;;;;;;1.15;1.02;;;;;;;25.34;nan;62292.34;5091911;28;20616;-65
2023/09/18 06:43:28;;;;;;;2.20;1.67;;;;;;;25.01;nan;62341.00;5100157;28;20231;-65
2023/09/18 06:45:53;;;;;;;1.15;1.05;;;;;;;24.78;nan;62335.63;5104703;28;20652;-65
2023/09/18 06:48:19;;;;;;;1.05;0.95;;;;;;;24.72;nan;62266.06;5098732;28;20326;-65
2023/09/18 06:50:45;;;;;;;1.13;1.02;;;;;;;24.15;nan;62204.75;5105828;28;20640;-67
2023/09/18 06:53:10;;;;;;;1.00;0.95;;;;;;;24.31;nan;62175.44;5095950;28;20181;-65
2023/09/18 06:55:36;;;;;;;1.20;1.10;;;;;;;24.10;nan;62149.44;5107188;28;20197;-68
2023/09/18 06:58:02;;;;;;;1.20;1.00;;;;;;;23.78;nan;62161.13;5095186;28;20648;-67
2023/09/18 07:00:27;;;;;;;1.38;1.00;;;;;;;23.63;nan;62086.06;5108512;28;20193;-67
2023/09/18 07:02:53;;;;;;;1.10;1.00;;;;;;;23.80;nan;62136.75;5093681;28;20633;-67
2023/09/18 07:05:18;;;;;;;1.00;1.00;;;;;;;23.35;nan;62076.16;5109915;28;20169;-67
2023/09/18 07:07:44;;;;;;;1.88;1.00;;;;;;;23.19;nan;62021.44;5092931;28;20265;-67
2023/09/18 07:10:09;;;;;;;1.20;1.00;;;;;;;23.16;nan;62028.47;5111715;28;20580;-67
2023/09/18 07:12:36;;;;;;;1.20;1.08;;;;;;;23.40;nan;62094.31;5093364;28;20644;-67
2023/09/18 07:15:06;;;;;;;1.08;0.98;;;;;;;23.65;nan;62109.78;5093874;28;20605;-67
2023/09/18 07:17:32;;;;;;;0.98;0.80;;;;;;;23.62;nan;62053.63;5092962;28;20204;-65
2023/09/18 07:19:57;;;;;;;0.90;0.90;;;;;;;23.70;nan;62344.53;5111442;28;20263;-65
2023/09/18 07:22:23;;;;;;;1.13;1.02;;;;;;;23.96;nan;62170.06;5092822;28;20283;-65
2023/09/18 07:24:48;;;;;;;1.30;0.90;;;;;;;24.09;nan;62269.00;5111590;28;20198;-65
2023/09/18 07:27:14;;;;;;;1.10;1.00;;;;;;;23.59;nan;62246.44;5093635;28;20189;-65
2023/09/18 07:29:40;;;;;;;1.45;1.20;;;;;;;23.72;nan;62122.97;5110017;28;20625;-65
2023/09/18 07:32:05;;;;;;;0.90;0.90;;;;;;;23.90;nan;62184.09;5094485;28;20260;-65
2023/09/18 07:34:30;;;;;;;2.40;0.88;;;;;;;23.81;nan;62106.00;5108332;28;20220;-65
2023/09/18 07:36:56;;;;;;;0.95;0.90;;;;;;;24.05;nan;62193.34;5095368;28;20262;-65
2023/09/18 07:39:22;;;;;;;0.98;0.90;;;;;;;24.38;nan;62141.63;5106992;28;20696;-66
2023/09/18 07:41:47;;;;;;;0.93;0.93;;;;;;;24.79;nan;62381.22;5096383;28;20177;-65
2023/09/18 07:44:20;;;;;;;0.95;0.93;;;;;;;24.77;nan;62243.56;5105379;28;20231;-66
2023/09/18 07:46:45;;;;;;;1.05;1.00;;;;;;;24.71;nan;62244.00;5095578;28;20269;-66
2023/09/18 07:49:10;;;;;;;1.38;0.85;;;;;;;24.70;nan;62240.22;5105015;28;20204;-66
2023/09/18 07:51:36;;;;;;;3.80;1.10;;;;;;;24.11;nan;62179.88;5097955;28;20758;-66
2023/09/18 07:54:01;;;;;;;1.45;0.98;;;;;;;24.28;nan;62431.19;5103372;28;20665;-66
2023/09/18 07:56:27;;;;;;;0.85;0.85;;;;;;;24.19;nan;62115.91;5099153;28;20197;-66
2023/09/18 07:58:52;;;;;;;0.98;0.98;;;;;;;24.12;nan;62366.44;5092458;28;20598;-66
2023/09/18 08:01:18;;;;;;;2.08;1.55;;;;;;;23.82;nan;62096.69;5110582;28;20169;-66
2023/09/18 08:03:43;;;;;;;1.55;1.20;;;;;;;23.62;nan;62169.00;5112732;28;20177;-66
2023/09/18 08:06:09;;;;;;;1.70;1.35;;;;;;;23.42;nan;62182.69;5112689;28;20173;-66
2023/09/18 08:08:34;;;;;;;0.95;0.95;;;;;;;23.25;nan;62205.59;5113107;28;20177;-65
2023/09/18 08:11:10;;;;;;;1.45;1.27;;;;;;;23.49;nan;62083.72;5113005;28;20239;-66
2023/09/18 08:13:36;;;;;;;1.00;0.90;;;;;;;23.73;nan;62381.88;5113102;28;20693;-66
2023/09/18 08:16:03;;;;;;;1.20;1.10;;;;;;;23.98;nan;62319.09;4441110;28;21113;-67
2023/09/18 08:18:29;;;;;;;1.50;1.20;;;;;;;24.22;nan;62142.25;4811965;28;20270;-66
2023/09/18 08:20:57;;;;;;;1.77;0.95;;;;;;;24.59;nan;62241.34;5093110;28;20302;-66
2023/09/18 08:23:22;;;;;;;1.27;1.17;;;;;;;24.60;nan;62491.31;5092467;28;20188;-66
2023/09/18 08:25:51;;;;;;;1.25;1.15;;;;;;;24.26;nan;62287.28;5092475;28;20535;-66
2023/09/18 08:28:16;;;;;;;1.05;1.00;;;;;;;24.27;nan;62346.47;5092625;28;20245;-66
2023/09/18 08:30:44;;;;;;;1.20;1.10;;;;;;;25.05;nan;62376.97;5092295;28;20298;-66
2023/09/18 08:33:10;;;;;;;1.00;0.95;;;;;;;23.30;nan;63919.88;5092187;28;20176;-66
2023/09/18 08:35:35;;;;;;;1.63;1.40;;;;;;;24.95;nan;62569.50;5092225;28;20283;-66
2023/09/18 08:38:00;;;;;;;1.48;0.93;;;;;;;24.67;nan;62265.56;5092195;28;20223;-66
2023/09/18 08:40:26;;;;;;;1.10;1.00;;;;;;;24.91;nan;62292.97;5091970;28;20533;-66
2023/09/18 08:42:55;;;;;;;1.33;1.10;;;;;;;24.67;nan;62380.56;5091402;28;20757;-66
2023/09/18 08:45:35;;;;;;;1.92;1.13;;;;;;;24.61;nan;62282.81;5091778;28;20200;-66
2023/09/18 08:48:01;;;;;;;1.02;1.00;;;;;;;24.28;nan;62300.03;5091870;28;20162;-65
2023/09/18 08:50:27;;;;;;;1.10;1.00;;;;;;;24.45;nan;62322.63;5092130;28;20169;-66
2023/09/18 08:52:53;;;;;;;0.90;0.90;;;;;;;24.39;nan;62219.09;5092102;28;20162;-66
2023/09/18 08:55:19;;;;;;;0.90;0.90;;;;;;;24.38;nan;62227.84;5091065;28;20216;-66
2023/09/18 08:57:46;;;;;;;1.10;1.00;;;;;;;24.69;nan;62273.66;5091106;28;20282;-66
2023/09/18 09:00:16;;;;;;;1.25;0.95;;;;;;;24.51;nan;62250.50;5091429;28;20169;-66
2023/09/18 09:02:43;;;;;;;1.13;1.00;;;;;;;24.98;nan;62274.81;5092122;28;20632;-66
2023/09/18 09:05:08;;;;;;;1.25;1.00;;;;;;;25.28;nan;62350.91;5092134;28;20173;-66
2023/09/18 09:07:34;;;;;;;1.48;0.90;;;;;;;24.54;nan;62219.97;5107828;28;20651;-65
2023/09/18 09:09:59;;;;;;;0.80;0.80;;;;;;;24.24;nan;62301.25;5091627;28;20172;-65
2023/09/18 09:12:53;;;;;;;1.02;0.90;;;;;;;24.59;nan;62322.94;5091729;28;20172;-66
2023/09/18 09:15:19;;;;;;;2.03;0.90;;;;;;;24.75;nan;62311.28;5092253;28;20270;-66
2023/09/18 09:17:45;;;;;;;1.40;1.20;;;;;;;24.82;nan;62293.16;5091181;28;20174;-66
2023/09/18 09:20:12;;;;;;;1.25;1.15;;;;;;;25.38;nan;62612.97;5090365;28;20174;-65
2023/09/18 09:22:40;;;;;;;1.00;0.90;;;;;;;25.39;nan;62353.00;5100317;28;20180;-66
2023/09/18 09:25:21;;;;;;;1.13;1.02;;;;;;;25.82;nan;62558.69;5097818;28;20181;-67
2023/09/18 09:27:47;;;;;;;1.00;0.90;;;;;;;25.99;nan;62542.97;5110410;28;20180;-67
2023/09/18 09:30:23;;;;;;;1.10;1.00;;;;;;;26.27;nan;62575.59;5084802;28;20281;-66
2023/09/18 09:32:50;;;;;;;1.63;1.17;;;;;;;26.51;nan;62494.44;5101312;28;20184;-67
2023/09/18 09:35:27;;;;;;;1.10;1.00;;;;;;;23.64;nan;62123.72;5095955;28;20180;-67
2023/09/18 09:37:58;;;;;;;0.90;0.90;;;;;;;26.55;nan;62632.72;5109112;28;20248;-65
2023/09/18 09:40:25;;;;;;;3.17;0.93;;;;;;;26.65;nan;62523.56;5090729;28;20192;-65
2023/09/18 09:42:53;;;;;;;1.60;1.15;;;;;;;27.10;nan;62632.78;5109051;28;20180;-65
2023/09/18 09:45:19;;;;;;;0.93;0.90;;;;;;;27.32;nan;62620.13;5090497;28;20180;-66
2023/09/18 09:47:45;;;;;;;1.33;1.00;;;;;;;26.85;nan;62501.88;5108799;28;20195;-65
2023/09/18 09:50:18;;;;;;;1.23;0.90;;;;;;;26.63;nan;62472.03;5090220;28;20196;-66
2023/09/18 09:52:48;;;;;;;0.90;0.88;;;;;;;25.90;nan;62410.13;5090197;28;20687;-65
2023/09/18 09:55:24;;;;;;;0.77;0.77;;;;;;;25.08;nan;62275.75;5084301;28;20173;-65
2023/09/18 09:58:10;;;;;;;0.80;0.80;;;;;;;25.16;nan;62279.66;5108984;28;20180;-65
2023/09/18 10:00:53;;;;;;;1.27;1.10;;;;;;;25.86;nan;62447.44;5090799;28;20328;-66
2023/09/18 10:03:20;;;;;;;0.93;0.82;;;;;;;21.78;nan;64009.47;5101109;28;20173;-65
2023/09/18 10:05:50;;;;;;;1.25;1.05;;;;;;;23.70;nan;62305.41;5111052;28;20705;-65
2023/09/18 10:08:27;;;;;;;1.67;1.17;;;;;;;25.41;nan;62378.25;5111047;28;20218;-65
2023/09/18 10:10:54;;;;;;;0.80;0.80;;;;;;;25.56;nan;62486.47;5114879;28;20223;-65
2023/09/18 10:13:41;;;;;;;1.02;1.02;;;;;;;25.43;nan;62347.09;5115443;28;20181;-65
2023/09/18 10:16:07;;;;;;;1.20;1.10;;;;;;;25.55;nan;62362.31;5096574;28;20196;-66
2023/09/18 10:18:43;;;;;;;1.00;0.90;;;;;;;26.10;nan;62556.13;5114786;28;20217;-65
2023/09/18 10:21:30;;;;;;;1.13;1.00;;;;;;;26.33;nan;62477.06;5114570;28;20172;-65
2023/09/18 10:24:13;;;;;;;1.25;1.00;;;;;;;26.20;nan;62711.69;5114258;28;20157;-65
2023/09/18 10:27:05;;;;;;;1.58;0.98;;;;;;;25.71;nan;62394.22;5114487;28;20248;-66
2023/09/18 10:29:34;;;;;;;1.42;1.25;;;;;;;25.28;nan;62384.94;5110229;28;20250;-66
2023/09/18 10:32:02;;;;;;;1.20;1.10;;;;;;;25.22;nan;62307.44;5114530;28;20299;-66
2023/09/18 10:34:30;;;;;;;0.95;0.90;;;;;;;25.44;nan;62373.84;5114732;28;20189;-66
2023/09/18 10:36:57;;;;;;;1.27;1.17;;;;;;;25.40;nan;62312.28;5114484;28;20200;-66
2023/09/18 10:39:26;;;;;;;1.10;1.00;;;;;;;25.30;nan;62334.88;5114502;28;20625;-66
2023/09/18 10:41:53;;;;;;;1.40;1.20;;;;;;;25.35;nan;62317.03;5114175;28;20242;-66
2023/09/18 10:44:19;;;;;;;1.08;0.98;;;;;;;25.58;nan;62491.34;5113596;28;20165;-65
2023/09/18 10:46:46;;;;;;;1.23;1.08;;;;;;;25.72;nan;62363.94;5113589;28;20179;-66
2023/09/18 10:49:12;;;;;;;1.13;1.02;;;;;;;25.68;nan;62338.44;5113981;28;20171;-66
2023/09/18 10:51:42;;;;;;;1.33;1.02;;;;;;;25.49;nan;62612.47;5114154;28;20206;-66
2023/09/18 10:54:14;;;;;;;1.30;1.08;;;;;;;25.41;nan;62313.41;5114036;28;20169;-66
2023/09/18 10:56:41;;;;;;;1.20;1.10;;;;;;;24.94;nan;62257.75;5113779;28;20279;-66
2023/09/18 10:59:08;;;;;;;1.35;1.17;;;;;;;25.30;nan;62332.25;5113875;28;20157;-66
2023/09/18 11:01:36;;;;;;;2.75;0.80;;;;;;;25.11;nan;62440.78;5114181;28;20184;-66
2023/09/18 11:04:04;;;;;;;1.02;0.95;;;;;;;24.97;nan;62312.91;5114273;28;20184;-66
2023/09/18 11:06:30;;;;;;;1.42;1.10;;;;;;;24.77;nan;62253.47;5114074;28;20173;-66
2023/09/18 11:09:09;;;;;;;1.00;0.88;;;;;;;25.02;nan;62308.72;5095971;28;20218;-66
2023/09/18 11:11:35;;;;;;;1.50;1.20;;;;;;;24.88;nan;62405.16;5113949;28;20318;-66
2023/09/18 11:14:01;;;;;;;1.08;1.00;;;;;;;25.26;nan;62312.00;5113868;28;20161;-66
2023/09/18 11:16:26;;;;;;;1.33;0.82;;;;;;;25.17;nan;62547.03;5113865;28;20804;-66
2023/09/18 11:19:16;;;;;;;0.80;0.80;;;;;;;25.26;nan;62427.09;5114029;28;20259;-66
2023/09/18 11:21:42;;;;;;;1.48;1.05;;;;;;;25.44;nan;62434.03;5113501;28;20275;-66
2023/09/18 11:24:17;;;;;;;1.17;1.02;;;;;;;25.51;nan;62353.63;5113758;28;20657;-66
2023/09/18 11:26:45;;;;;;;1.23;0.90;;;;;;;25.86;nan;62423.88;5113765;28;20217;-66
2023/09/18 11:29:13;;;;;;;1.02;0.90;;;;;;;26.03;nan;62430.22;5113603;28;20167;-66
2023/09/18 11:31:43;;;;;;;1.00;0.90;;;;;;;26.48;nan;62504.13;5113485;28;20169;-66
2023/09/18 11:34:12;;;;;;;1.45;1.10;;;;;;;26.45;nan;62508.56;5113745;28;20173;-66
2023/09/18 11:36:38;;;;;;;1.05;0.90;;;;;;;26.72;nan;62639.09;5113333;28;20200;-66
2023/09/18 11:39:04;;;;;;;1.10;1.00;;;;;;;26.94;nan;62474.88;5113303;28;20203;-66
2023/09/18 11:41:32;;;;;;;0.85;0.82;;;;;;;27.18;nan;62605.22;5113410;28;20169;-66
2023/09/18 11:44:06;;;;;;;0.93;0.80;;;;;;;27.14;nan;62621.63;5113088;28;20245;-66
2023/09/18 11:46:33;;;;;;;1.08;1.00;;;;;;;27.15;nan;62577.59;5113001;28;20595;-66
2023/09/18 11:48:59;;;;;;;1.50;1.15;;;;;;;27.50;nan;62672.25;5113005;28;20168;-66
2023/09/18 11:51:25;;;;;;;0.70;0.70;;;;;;;27.75;nan;62669.38;5113526;28;20164;-67